Time;durP1;ratioP1;P1;durP2;ratioP2;P2;SDS_P1;SDS_P2;PMS_P1;PMS_P2;Temp;Humidity;BMP_temperature;BMP_pressure;BME280_temperature;BME280_humidity;BME280_pressure;Samples;Min_cycle;Max_cycle;Signal;HPM_P1;HPM_P2
2023/03/08 00:01:12;;;;;;;2.53;1.50;;;2.50;99.90;;;;;;6131630;23;20162;-74
2023/03/08 00:03:37;;;;;;;4.38;1.90;;;0.90;99.90;;;;;;6130831;23;20057;-74
2023/03/08 00:06:05;;;;;;;3.95;1.70;;;1.60;99.90;;;;;;6083673;23;20061;-74
2023/03/08 00:08:30;;;;;;;3.00;1.52;;;0.70;99.90;;;;;;6107590;23;20017;-74
2023/03/08 00:10:56;;;;;;;3.78;1.60;;;1.90;99.90;;;;;;6107020;23;20010;-73
2023/03/08 00:13:22;;;;;;;4.80;1.80;;;1.00;99.90;;;;;;6131558;23;20102;-74
2023/03/08 00:15:47;;;;;;;2.95;1.55;;;1.90;99.90;;;;;;6083285;23;20037;-73
2023/03/08 00:18:13;;;;;;;3.13;1.70;;;1.00;99.90;;;;;;6107329;23;20010;-74
2023/03/08 00:20:39;;;;;;;2.53;1.70;;;0.80;99.90;;;;;;6107492;23;20014;-74
2023/03/08 00:23:04;;;;;;;4.18;1.73;;;0.90;99.90;;;;;;6104890;23;20021;-72
2023/03/08 00:25:30;;;;;;;2.35;1.30;;;0.90;99.90;;;;;;6131364;23;20069;-76
2023/03/08 00:27:56;;;;;;;2.67;1.42;;;0.80;99.90;;;;;;6107715;23;20083;-76
2023/03/08 00:30:21;;;;;;;2.25;1.40;;;0.90;99.90;;;;;;6107609;23;20010;-74
2023/03/08 00:32:47;;;;;;;5.30;1.98;;;1.20;99.90;;;;;;6058993;23;20022;-74
2023/03/08 00:35:13;;;;;;;3.45;1.45;;;1.10;99.90;;;;;;6107188;23;20065;-75
2023/03/08 00:37:39;;;;;;;4.38;1.45;;;0.80;99.90;;;;;;6107672;23;20029;-74
2023/03/08 00:40:05;;;;;;;3.63;1.55;;;0.90;99.90;;;;;;6083639;23;20293;-76
2023/03/08 00:42:31;;;;;;;4.72;1.50;;;0.60;99.90;;;;;;6105612;23;20022;-74
2023/03/08 00:44:56;;;;;;;3.30;1.58;;;2.10;99.90;;;;;;6107472;23;20021;-73
2023/03/08 00:47:22;;;;;;;2.75;1.42;;;0.70;99.90;;;;;;6131149;23;20020;-75
2023/03/08 00:49:48;;;;;;;4.18;1.52;;;2.30;99.90;;;;;;6131794;23;20021;-74
2023/03/08 00:52:13;;;;;;;3.83;1.33;;;2.30;99.90;;;;;;6106459;23;20014;-73
2023/03/08 00:54:39;;;;;;;3.05;1.60;;;0.60;99.90;;;;;;6106788;23;20018;-74
2023/03/08 00:57:05;;;;;;;3.97;1.63;;;0.80;99.90;;;;;;6082675;23;20353;-73
2023/03/08 00:59:31;;;;;;;3.17;1.70;;;1.90;99.90;;;;;;6131124;23;20304;-73
2023/03/08 01:01:56;;;;;;;3.00;1.52;;;0.80;99.90;;;;;;6131340;23;20236;-74
2023/03/08 01:04:22;;;;;;;3.83;1.45;;;0.90;99.90;;;;;;6106504;23;20045;-74
2023/03/08 01:06:48;;;;;;;2.95;1.45;;;1.50;99.90;;;;;;6131484;23;20021;-73
2023/03/08 01:09:13;;;;;;;3.60;1.80;;;0.80;99.90;;;;;;6059310;23;20166;-73
2023/03/08 01:11:39;;;;;;;4.93;1.70;;;0.50;99.90;;;;;;6106861;23;20018;-73
2023/03/08 01:14:09;;;;;;;3.05;1.83;;;0.50;99.90;;;;;;6106355;23;20359;-74
2023/03/08 01:16:35;;;;;;;2.35;1.50;;;0.50;99.90;;;;;;6130824;23;20017;-73
2023/03/08 01:19:03;;;;;;;2.47;1.60;;;0.80;99.90;;;;;;6131898;23;20018;-73
2023/03/08 01:21:30;;;;;;;4.53;1.45;;;0.40;99.90;;;;;;6106570;23;20018;-73
2023/03/08 01:23:56;;;;;;;3.85;1.85;;;1.30;99.90;;;;;;6082753;23;20017;-74
2023/03/08 01:26:26;;;;;;;3.55;1.70;;;0.60;99.90;;;;;;6106620;23;20017;-76
2023/03/08 01:32:08;;;;;;;4.13;1.88;;;0.50;99.90;;;;;;6132894;23;20033;-74
2023/03/08 01:35:03;;;;;;;4.22;1.85;;;0.40;99.90;;;;;;6106612;23;20299;-74
2023/03/08 01:37:52;;;;;;;3.08;1.80;;;0.60;99.90;;;;;;6130855;23;20026;-74
2023/03/08 01:40:18;;;;;;;2.17;1.40;;;0.40;99.90;;;;;;6082911;23;20044;-73
2023/03/08 01:42:44;;;;;;;4.68;1.63;;;0.30;99.90;;;;;;6131278;23;20017;-74
2023/03/08 01:45:47;;;;;;;3.28;1.80;;;0.20;99.90;;;;;;6106762;23;20021;-73
2023/03/08 01:48:14;;;;;;;5.43;1.83;;;0.20;99.90;;;;;;6131341;23;20077;-73
2023/03/08 01:50:41;;;;;;;3.08;1.50;;;0.40;99.90;;;;;;6131410;23;20097;-72
2023/03/08 01:53:07;;;;;;;3.47;1.40;;;0.30;99.90;;;;;;6107199;23;20034;-74
2023/03/08 01:55:34;;;;;;;2.72;1.60;;;1.80;99.90;;;;;;6107334;23;20049;-74
2023/03/08 01:58:00;;;;;;;3.17;1.50;;;0.30;99.90;;;;;;6061008;23;20026;-73
2023/03/08 02:00:25;;;;;;;3.40;1.20;;;0.20;99.90;;;;;;6108343;23;20081;-73
2023/03/08 02:02:58;;;;;;;3.55;1.90;;;0.20;99.90;;;;;;6083120;23;20020;-73
2023/03/08 02:05:25;;;;;;;3.25;1.50;;;0.20;99.90;;;;;;6106053;23;20028;-73
2023/03/08 02:07:50;;;;;;;5.00;1.48;;;0.00;99.90;;;;;;6059109;23;20045;-74
2023/03/08 02:10:17;;;;;;;4.13;1.65;;;0.20;99.90;;;;;;6131214;23;20331;-73
2023/03/08 02:12:43;;;;;;;3.20;1.55;;;0.10;99.90;;;;;;6131144;23;20324;-74
2023/03/08 02:15:11;;;;;;;3.15;1.33;;;2.10;99.90;;;;;;6107424;23;20010;-72
2023/03/08 02:17:39;;;;;;;4.38;1.35;;;0.40;99.90;;;;;;6129906;23;20025;-72
2023/03/08 02:20:25;;;;;;;2.85;1.48;;;0.80;99.90;;;;;;6106604;23;20029;-72
2023/03/08 02:22:52;;;;;;;1.67;1.20;;;0.40;99.90;;;;;;6106818;23;20041;-73
2023/03/08 02:25:21;;;;;;;8.40;2.78;;;0.50;99.90;;;;;;6131427;23;20020;-74
2023/03/08 02:27:47;;;;;;;6.25;1.75;;;0.20;99.90;;;;;;6106217;23;20537;-73
2023/03/08 02:30:17;;;;;;;2.17;1.30;;;0.50;99.90;;;;;;6081813;23;20014;-73
2023/03/08 02:32:42;;;;;;;5.50;1.38;;;1.40;99.90;;;;;;6106071;23;20021;-73
2023/03/08 02:35:08;;;;;;;5.28;1.08;;;0.30;99.90;;;;;;6130455;23;20013;-73
2023/03/08 02:37:34;;;;;;;2.63;1.30;;;0.20;99.90;;;;;;6105452;23;20006;-73
2023/03/08 02:40:00;;;;;;;3.42;1.30;;;0.40;99.90;;;;;;6081485;23;20068;-73
2023/03/08 02:42:26;;;;;;;2.65;1.30;;;1.80;99.90;;;;;;6105365;23;20021;-74
2023/03/08 02:44:52;;;;;;;4.43;1.15;;;0.60;99.90;;;;;;6107971;23;20009;-73
2023/03/08 02:47:17;;;;;;;3.67;1.27;;;0.30;99.90;;;;;;6132608;23;20392;-73
2023/03/08 02:49:43;;;;;;;3.47;1.00;;;0.10;99.90;;;;;;6132050;23;20353;-72
2023/03/08 02:52:09;;;;;;;3.92;1.20;;;0.30;99.90;;;;;;6132689;23;20034;-75
2023/03/08 02:54:34;;;;;;;2.90;1.40;;;0.30;99.90;;;;;;6107979;23;20438;-75
2023/03/08 02:57:00;;;;;;;2.97;1.20;;;1.90;99.90;;;;;;6108050;23;20018;-73
2023/03/08 02:59:26;;;;;;;3.30;1.10;;;0.00;99.90;;;;;;6156042;23;20018;-73
2023/03/08 03:01:51;;;;;;;3.05;1.10;;;0.60;99.90;;;;;;6108556;23;20114;-73
2023/03/08 03:04:17;;;;;;;4.30;1.15;;;0.20;99.90;;;;;;6132775;23;20013;-72
2023/03/08 03:06:43;;;;;;;3.10;1.13;;;1.10;99.90;;;;;;6083821;23;20029;-73
2023/03/08 03:09:14;;;;;;;4.15;1.20;;;-0.10;99.90;;;;;;6132302;23;20057;-74
2023/03/08 03:11:40;;;;;;;3.25;1.40;;;0.10;99.90;;;;;;6084076;23;20030;-72
2023/03/08 03:14:06;;;;;;;4.28;1.00;;;0.30;99.90;;;;;;6132621;23;20177;-72
2023/03/08 03:16:32;;;;;;;2.10;1.33;;;0.10;99.90;;;;;;6107984;23;20073;-72
2023/03/08 03:18:58;;;;;;;4.47;1.50;;;1.10;99.90;;;;;;6131429;23;20352;-74
2023/03/08 03:21:24;;;;;;;3.58;1.40;;;1.00;99.90;;;;;;6108133;23;20014;-73
2023/03/08 03:23:50;;;;;;;5.00;1.33;;;1.40;99.90;;;;;;6132168;23;20021;-74
2023/03/08 03:26:19;;;;;;;2.63;1.30;;;0.40;99.90;;;;;;6132932;23;20065;-73
2023/03/08 03:28:45;;;;;;;2.15;1.38;;;1.70;99.90;;;;;;6107346;23;20022;-74
2023/03/08 03:31:18;;;;;;;1.75;1.00;;;0.30;99.90;;;;;;6108400;23;20041;-73
2023/03/08 03:33:45;;;;;;;1.30;1.20;;;0.20;99.90;;;;;;6132151;23;20496;-74
2023/03/08 03:36:13;;;;;;;5.90;1.40;;;0.90;99.90;;;;;;6108229;23;20017;-73
2023/03/08 03:38:39;;;;;;;2.35;1.40;;;0.50;99.90;;;;;;6131057;23;20142;-73
2023/03/08 03:41:07;;;;;;;1.88;1.27;;;0.30;99.90;;;;;;6107839;23;20061;-73
2023/03/08 03:43:33;;;;;;;3.35;1.30;;;1.10;99.90;;;;;;6107494;23;20323;-74
2023/03/08 03:46:02;;;;;;;2.22;1.13;;;0.30;99.90;;;;;;6131950;23;20016;-72
2023/03/08 03:48:28;;;;;;;4.25;1.30;;;0.00;99.90;;;;;;6083629;23;20014;-72
2023/03/08 03:51:03;;;;;;;3.47;1.95;;;1.60;99.90;;;;;;6131912;23;20025;-73
2023/03/08 03:53:30;;;;;;;5.50;1.30;;;0.20;99.90;;;;;;6108051;23;20073;-73
2023/03/08 03:56:03;;;;;;;4.35;1.40;;;0.60;99.90;;;;;;6084158;23;20021;-73
2023/03/08 03:58:29;;;;;;;3.25;1.92;;;2.00;99.90;;;;;;6132057;23;20253;-74
2023/03/08 04:00:55;;;;;;;1.70;1.20;;;0.40;99.90;;;;;;6083703;23;20017;-75
2023/03/08 04:03:21;;;;;;;3.10;1.40;;;0.00;99.90;;;;;;6108224;23;20069;-74
2023/03/08 04:05:46;;;;;;;2.22;1.05;;;0.80;99.90;;;;;;6083606;23;20072;-75
2023/03/08 04:08:12;;;;;;;5.07;1.30;;;1.30;99.90;;;;;;6107859;23;20069;-74
2023/03/08 04:10:38;;;;;;;4.57;1.42;;;0.20;99.90;;;;;;6106307;23;20017;-74
2023/03/08 04:13:04;;;;;;;7.32;1.58;;;0.00;99.90;;;;;;6107656;23;20026;-74
2023/03/08 04:15:30;;;;;;;4.43;1.40;;;0.70;99.90;;;;;;6107004;23;20010;-74
2023/03/08 04:17:55;;;;;;;1.90;1.27;;;0.20;99.90;;;;;;6132025;23;20062;-73
2023/03/08 04:20:22;;;;;;;4.07;1.23;;;1.40;99.90;;;;;;6107375;23;20354;-75
2023/03/08 04:22:47;;;;;;;4.40;1.33;;;1.00;99.90;;;;;;6107237;23;20022;-75
2023/03/08 04:25:13;;;;;;;1.70;1.13;;;1.30;99.90;;;;;;6107823;23;20374;-75
2023/03/08 04:27:39;;;;;;;2.47;1.30;;;0.10;99.90;;;;;;6106993;23;20200;-74
2023/03/08 04:30:05;;;;;;;6.43;1.30;;;0.00;99.90;;;;;;6106530;23;20014;-75
2023/03/08 04:32:31;;;;;;;2.42;1.10;;;-0.10;99.90;;;;;;6131439;23;20243;-75
2023/03/08 04:34:57;;;;;;;3.42;1.02;;;0.90;99.90;;;;;;6083663;23;20025;-74
2023/03/08 04:37:24;;;;;;;2.47;1.15;;;0.60;99.90;;;;;;6103616;23;20010;-72
2023/03/08 04:39:50;;;;;;;2.60;1.38;;;-0.30;99.90;;;;;;6130802;23;20040;-72
2023/03/08 04:42:16;;;;;;;5.15;1.30;;;-0.30;99.90;;;;;;6106690;23;20013;-73
2023/03/08 04:44:41;;;;;;;4.60;1.38;;;-0.20;99.90;;;;;;6131288;23;20014;-74
2023/03/08 04:47:08;;;;;;;1.67;1.17;;;-0.20;99.90;;;;;;6107556;23;20044;-73
2023/03/08 04:49:33;;;;;;;1.90;1.05;;;1.10;99.90;;;;;;6081667;23;20014;-74
2023/03/08 04:51:59;;;;;;;3.17;1.30;;;0.10;99.90;;;;;;6080561;23;20049;-74
2023/03/08 04:54:26;;;;;;;5.97;1.70;;;2.00;99.90;;;;;;6105515;23;20039;-74
2023/03/08 04:56:52;;;;;;;1.67;1.08;;;-0.10;99.90;;;;;;6080868;23;20025;-75
2023/03/08 04:59:17;;;;;;;5.65;1.65;;;1.70;99.90;;;;;;6129567;23;20010;-74
2023/03/08 05:01:43;;;;;;;3.00;1.27;;;1.00;99.90;;;;;;6128972;23;20010;-73
2023/03/08 05:04:11;;;;;;;6.57;1.33;;;1.60;99.90;;;;;;6105661;23;20017;-74
2023/03/08 05:06:39;;;;;;;3.35;1.00;;;1.40;99.90;;;;;;6129350;23;20045;-74
2023/03/08 05:09:05;;;;;;;2.25;1.23;;;1.00;99.90;;;;;;6057708;23;20017;-74
2023/03/08 05:11:31;;;;;;;1.63;1.30;;;-0.20;99.90;;;;;;6104847;23;20025;-74
2023/03/08 05:13:58;;;;;;;1.40;1.10;;;0.20;99.90;;;;;;6081230;23;20010;-74
2023/03/08 05:16:25;;;;;;;3.03;1.30;;;-0.10;99.90;;;;;;6105487;23;20017;-74
2023/03/08 05:18:50;;;;;;;5.20;1.88;;;1.40;99.90;;;;;;6128936;23;20313;-74
2023/03/08 05:21:19;;;;;;;3.83;1.35;;;1.90;99.90;;;;;;6105559;23;20061;-74
2023/03/08 05:23:45;;;;;;;3.60;1.30;;;0.00;99.90;;;;;;6104773;23;20022;-75
2023/03/08 05:26:14;;;;;;;4.82;1.20;;;1.90;99.90;;;;;;6105659;23;20014;-74
2023/03/08 05:28:42;;;;;;;4.82;1.30;;;-0.10;99.90;;;;;;6105563;23;20194;-74
2023/03/08 05:31:12;;;;;;;3.05;1.20;;;-0.10;99.90;;;;;;6108684;23;20021;-74
2023/03/08 05:33:39;;;;;;;3.67;1.20;;;-0.10;99.90;;;;;;6132419;23;20301;-75
2023/03/08 05:36:06;;;;;;;3.25;1.25;;;1.20;99.90;;;;;;6109425;23;20011;-74
2023/03/08 05:38:32;;;;;;;1.92;1.20;;;-0.20;99.90;;;;;;6109099;23;20018;-74
2023/03/08 05:41:02;;;;;;;2.42;1.20;;;0.20;99.90;;;;;;6085151;23;20314;-73
2023/03/08 05:43:28;;;;;;;4.45;1.50;;;-0.10;99.90;;;;;;6108816;23;20018;-72
2023/03/08 05:46:04;;;;;;;2.10;1.10;;;-0.10;99.90;;;;;;6132965;23;20186;-74
2023/03/08 05:48:32;;;;;;;4.18;1.20;;;0.40;99.90;;;;;;6133462;23;20017;-72
2023/03/08 05:51:03;;;;;;;3.17;1.20;;;0.30;99.90;;;;;;6109257;23;20020;-73
2023/03/08 05:53:29;;;;;;;2.67;1.58;;;0.30;99.90;;;;;;6132461;23;20033;-74
2023/03/08 05:55:55;;;;;;;2.17;1.35;;;0.30;99.90;;;;;;6084227;23;20268;-73
2023/03/08 05:58:20;;;;;;;6.82;2.92;;;0.00;99.90;;;;;;6133396;23;20014;-75
2023/03/08 06:00:46;;;;;;;6.35;3.50;;;0.30;99.90;;;;;;6108461;23;20014;-75
2023/03/08 06:03:12;;;;;;;10.00;4.10;;;0.00;99.90;;;;;;6109186;23;20021;-75
2023/03/08 06:05:38;;;;;;;10.02;4.63;;;0.60;99.90;;;;;;6083198;23;20017;-72
2023/03/08 06:08:04;;;;;;;8.98;4.13;;;1.00;99.90;;;;;;6133290;23;20024;-74
2023/03/08 06:10:29;;;;;;;7.68;2.88;;;0.00;99.90;;;;;;6132942;23;20014;-73
2023/03/08 06:12:55;;;;;;;5.70;2.67;;;0.10;99.90;;;;;;6109108;23;20021;-75
2023/03/08 06:15:21;;;;;;;6.07;3.20;;;0.20;99.90;;;;;;6083283;23;20410;-75
2023/03/08 06:17:47;;;;;;;7.28;2.60;;;0.50;99.90;;;;;;6131499;23;20045;-74
2023/03/08 06:20:15;;;;;;;3.05;2.10;;;0.30;99.90;;;;;;6108338;23;20033;-74
2023/03/08 06:22:41;;;;;;;5.93;2.58;;;0.30;99.90;;;;;;6106732;23;20065;-75
2023/03/08 06:25:07;;;;;;;5.25;2.67;;;0.50;99.90;;;;;;6107490;23;20013;-75
2023/03/08 06:27:33;;;;;;;8.50;3.20;;;0.30;99.90;;;;;;6131477;23;20196;-72
2023/03/08 06:29:58;;;;;;;5.68;2.83;;;0.10;99.90;;;;;;6132409;23;20014;-74
2023/03/08 06:32:24;;;;;;;7.13;3.45;;;0.10;99.90;;;;;;6107735;23;20013;-72
2023/03/08 06:34:50;;;;;;;7.35;3.95;;;1.00;99.90;;;;;;6107347;23;20049;-75
2023/03/08 06:37:15;;;;;;;9.35;4.85;;;0.30;99.90;;;;;;6083789;23;20044;-74
2023/03/08 06:39:41;;;;;;;7.05;3.38;;;1.70;99.90;;;;;;6131737;23;20256;-74
2023/03/08 06:42:07;;;;;;;10.13;3.80;;;0.10;99.90;;;;;;6131754;23;20022;-75
2023/03/08 06:44:32;;;;;;;7.20;4.03;;;0.50;99.90;;;;;;6131884;23;20051;-76
2023/03/08 06:46:58;;;;;;;8.05;4.25;;;0.30;99.90;;;;;;6083541;23;20182;-76
2023/03/08 06:49:24;;;;;;;7.05;4.22;;;1.70;99.90;;;;;;6130726;23;20073;-76
2023/03/08 06:51:50;;;;;;;11.30;5.35;;;0.40;99.90;;;;;;6107661;23;20052;-77
2023/03/08 06:54:16;;;;;;;8.43;5.47;;;0.30;99.90;;;;;;6108188;23;20010;-77
2023/03/08 06:56:46;;;;;;;10.50;5.63;;;0.60;99.90;;;;;;6106186;23;20017;-77
2023/03/08 06:59:15;;;;;;;7.50;4.78;;;0.60;99.90;;;;;;6057935;23;20026;-76
2023/03/08 07:01:40;;;;;;;9.68;4.38;;;0.40;99.90;;;;;;6105141;23;20038;-77
2023/03/08 07:04:06;;;;;;;6.93;4.47;;;0.60;99.90;;;;;;6129990;23;20557;-78
2023/03/08 07:06:32;;;;;;;9.15;5.00;;;0.50;99.90;;;;;;6082333;23;20041;-76
2023/03/08 07:08:58;;;;;;;9.40;5.55;;;0.50;99.90;;;;;;6130211;23;20681;-78
2023/03/08 07:11:25;;;;;;;10.07;5.10;;;1.20;99.90;;;;;;6104409;23;20017;-75
2023/03/08 07:13:51;;;;;;;9.00;4.65;;;1.40;99.90;;;;;;6105079;23;20014;-75
2023/03/08 07:16:17;;;;;;;8.88;4.57;;;1.50;99.90;;;;;;6106324;23;20017;-76
2023/03/08 07:18:43;;;;;;;9.18;4.60;;;1.40;99.90;;;;;;6105031;23;20208;-75
2023/03/08 07:21:09;;;;;;;11.45;5.57;;;0.70;99.90;;;;;;6105259;23;20017;-75
2023/03/08 07:23:35;;;;;;;9.57;4.95;;;3.00;99.90;;;;;;6129346;23;20013;-76
2023/03/08 07:26:08;;;;;;;9.43;6.47;;;0.80;99.90;;;;;;6081433;23;20143;-79
2023/03/08 07:28:34;;;;;;;8.18;5.47;;;0.80;99.90;;;;;;6129552;23;20013;-76
2023/03/08 07:31:00;;;;;;;15.18;6.85;;;2.00;99.90;;;;;;6129392;23;20218;-76
2023/03/08 07:33:26;;;;;;;12.57;7.18;;;1.10;99.90;;;;;;6080928;23;20069;-76
2023/03/08 07:35:51;;;;;;;10.90;7.07;;;1.90;99.90;;;;;;6105941;23;20045;-75
2023/03/08 07:38:17;;;;;;;9.15;7.00;;;2.40;99.90;;;;;;6132264;23;20297;-77
2023/03/08 07:40:43;;;;;;;7.68;6.10;;;3.30;99.90;;;;;;6107130;23;20052;-76
2023/03/08 07:43:09;;;;;;;10.57;6.25;;;1.20;99.90;;;;;;6107513;23;20174;-77
2023/03/08 07:45:38;;;;;;;8.73;6.82;;;1.10;99.90;;;;;;6059362;23;20064;-76
2023/03/08 07:48:04;;;;;;;8.25;6.40;;;1.80;99.90;;;;;;6084334;23;20014;-78
2023/03/08 07:50:30;;;;;;;11.57;7.18;;;1.50;99.90;;;;;;6108026;23;20014;-78
2023/03/08 07:52:57;;;;;;;18.70;10.60;;;1.30;99.90;;;;;;6130840;23;20060;-78
2023/03/08 07:55:24;;;;;;;10.90;7.88;;;2.10;99.90;;;;;;6132413;23;20069;-77
2023/03/08 07:57:50;;;;;;;8.07;5.97;;;2.50;99.90;;;;;;6083459;23;20045;-77
2023/03/08 08:00:16;;;;;;;9.52;6.30;;;2.40;99.90;;;;;;6108023;23;20021;-77
2023/03/08 08:02:42;;;;;;;8.73;6.00;;;1.50;99.90;;;;;;6107171;23;20092;-78
2023/03/08 08:05:08;;;;;;;7.15;5.97;;;2.90;99.90;;;;;;6132116;23;20014;-80
2023/03/08 08:07:34;;;;;;;6.78;5.90;;;3.60;99.90;;;;;;6107324;23;20293;-77
2023/03/08 08:09:59;;;;;;;9.32;6.90;;;2.30;99.90;;;;;;6131721;23;20354;-78
2023/03/08 08:12:25;;;;;;;12.35;7.05;;;2.50;99.90;;;;;;6106961;23;20010;-77
2023/03/08 08:14:52;;;;;;;9.80;6.93;;;2.50;99.90;;;;;;6106753;23;20064;-78
2023/03/08 08:17:18;;;;;;;9.27;6.90;;;1.90;99.90;;;;;;6131949;23;20010;-77
2023/03/08 08:19:45;;;;;;;9.73;6.68;;;3.20;99.90;;;;;;6107219;23;20041;-77
2023/03/08 08:22:10;;;;;;;9.57;6.70;;;3.50;99.90;;;;;;6130870;23;20069;-72
2023/03/08 08:24:36;;;;;;;9.27;6.80;;;2.20;99.90;;;;;;6130613;23;20013;-77
2023/03/08 08:27:02;;;;;;;10.77;7.78;;;3.70;99.90;;;;;;6083631;23;20512;-77
2023/03/08 08:29:28;;;;;;;13.68;7.43;;;1.90;99.90;;;;;;6108158;23;20312;-77
2023/03/08 08:31:55;;;;;;;9.15;6.15;;;2.10;99.90;;;;;;6107400;23;20017;-77
2023/03/08 08:34:20;;;;;;;7.32;4.95;;;2.20;99.90;;;;;;6107711;23;20074;-76
2023/03/08 08:36:46;;;;;;;9.18;7.70;;;3.70;99.90;;;;;;6083438;23;20018;-76
2023/03/08 08:39:12;;;;;;;10.25;7.35;;;2.20;99.90;;;;;;6107835;23;20014;-76
2023/03/08 08:41:37;;;;;;;10.35;7.68;;;3.70;99.90;;;;;;6107881;23;20010;-77
2023/03/08 08:44:03;;;;;;;9.13;7.65;;;2.50;99.90;;;;;;6132326;23;20299;-77
2023/03/08 08:46:32;;;;;;;10.43;8.10;;;2.20;99.90;;;;;;6107214;23;20218;-75
2023/03/08 08:48:59;;;;;;;9.55;7.50;;;2.20;99.90;;;;;;6106486;23;20018;-77
2023/03/08 08:51:25;;;;;;;9.70;7.18;;;2.20;99.90;;;;;;6131480;23;20208;-76
2023/03/08 08:53:51;;;;;;;12.23;8.88;;;3.50;99.90;;;;;;6105806;23;20189;-76
2023/03/08 08:56:23;;;;;;;10.05;7.97;;;2.50;99.90;;;;;;6131568;23;20373;-76
2023/03/08 08:58:49;;;;;;;9.27;8.10;;;2.50;99.90;;;;;;6127907;23;20069;-75
2023/03/08 09:01:17;;;;;;;10.75;7.25;;;2.70;99.90;;;;;;6130991;23;20018;-76
2023/03/08 09:03:44;;;;;;;12.52;8.25;;;2.70;99.90;;;;;;6103751;23;20017;-77
2023/03/08 09:06:11;;;;;;;9.15;7.15;;;2.90;99.90;;;;;;6106453;23;20334;-74
2023/03/08 09:08:37;;;;;;;9.77;6.97;;;4.00;99.90;;;;;;6131334;23;20014;-75
2023/03/08 09:11:05;;;;;;;9.25;6.78;;;3.00;99.90;;;;;;6130817;23;20069;-74
2023/03/08 09:13:31;;;;;;;9.85;6.50;;;2.80;99.90;;;;;;6130591;23;20073;-76
2023/03/08 09:15:57;;;;;;;8.90;6.03;;;3.00;99.90;;;;;;6105986;23;20309;-74
2023/03/08 09:18:23;;;;;;;7.25;5.03;;;3.90;99.90;;;;;;6128813;23;20057;-76
2023/03/08 09:20:48;;;;;;;6.30;4.85;;;3.20;99.90;;;;;;6103950;23;20018;-77
2023/03/08 09:23:14;;;;;;;8.75;5.43;;;3.60;99.90;;;;;;6128909;23;20014;-74
2023/03/08 09:25:40;;;;;;;8.15;5.28;;;3.40;99.90;;;;;;6128800;23;20045;-75
2023/03/08 09:28:05;;;;;;;5.15;4.65;;;3.70;99.90;;;;;;6080906;23;20077;-76
2023/03/08 09:30:32;;;;;;;5.95;5.00;;;3.90;99.90;;;;;;6106234;23;20026;-75
2023/03/08 09:32:58;;;;;;;5.72;4.78;;;3.70;99.90;;;;;;6082512;23;20048;-74
2023/03/08 09:35:24;;;;;;;6.88;5.05;;;3.90;99.90;;;;;;6106379;23;20052;-75
2023/03/08 09:37:50;;;;;;;5.75;4.88;;;3.90;99.90;;;;;;6106505;23;20013;-77
2023/03/08 09:40:27;;;;;;;5.65;5.00;;;4.30;99.90;;;;;;6106331;23;20017;-75
2023/03/08 09:42:58;;;;;;;6.97;5.80;;;3.80;99.90;;;;;;6129601;23;20072;-75
2023/03/08 09:45:27;;;;;;;5.93;4.65;;;3.80;99.90;;;;;;6131206;23;20037;-76
2023/03/08 09:48:03;;;;;;;6.45;4.63;;;4.00;99.90;;;;;;6105999;23;20020;-76
2023/03/08 09:50:52;;;;;;;6.68;4.90;;;3.70;99.90;;;;;;6130258;23;20013;-76
2023/03/08 09:53:37;;;;;;;6.28;5.50;;;4.10;99.90;;;;;;6106264;23;20399;-76
2023/03/08 09:56:11;;;;;;;6.32;4.35;;;3.90;99.90;;;;;;6130367;23;20339;-76
2023/03/08 09:58:49;;;;;;;5.82;5.00;;;3.90;99.90;;;;;;6130849;23;20067;-76
2023/03/08 10:01:32;;;;;;;7.30;5.20;;;3.70;99.90;;;;;;6129564;23;20024;-76
2023/03/08 10:04:07;;;;;;;7.63;5.68;;;3.90;99.90;;;;;;6128894;23;20119;-74
2023/03/08 10:06:52;;;;;;;7.18;5.55;;;3.70;99.90;;;;;;6130274;23;20049;-74
2023/03/08 10:09:30;;;;;;;;;;;4.00;99.90;;;;;;6131449;23;20422;-74
2023/03/08 10:12:17;;;;;;;6.63;4.07;;;4.10;99.90;;;;;;6128105;23;20214;-75
2023/03/08 10:14:55;;;;;;;5.38;3.55;;;4.00;99.90;;;;;;6130980;23;20053;-74
2023/03/08 10:17:32;;;;;;;6.22;4.03;;;4.00;99.90;;;;;;6132697;23;20025;-74
2023/03/08 10:20:08;;;;;;;5.95;4.47;;;4.20;99.90;;;;;;6107778;23;20013;-73
2023/03/08 10:22:38;;;;;;;4.80;3.92;;;4.60;99.90;;;;;;6131584;23;20307;-75
2023/03/08 10:25:23;;;;;;;5.55;3.15;;;4.50;99.90;;;;;;6109231;23;20077;-74
2023/03/08 10:27:50;;;;;;;;;;;4.60;99.90;;;;;;6131606;23;20089;-74
2023/03/08 10:30:19;;;;;;;3.47;2.92;;;4.50;99.90;;;;;;6107175;23;20222;-74
2023/03/08 10:32:49;;;;;;;4.82;3.17;;;4.90;99.90;;;;;;6106362;23;20014;-74
2023/03/08 10:35:16;;;;;;;4.03;3.00;;;4.80;99.90;;;;;;6131630;23;20017;-74
2023/03/08 10:37:42;;;;;;;4.28;3.22;;;5.20;99.90;;;;;;6129371;23;20016;-74
2023/03/08 10:40:17;;;;;;;4.00;3.03;;;5.20;99.90;;;;;;6105568;23;20009;-74
2023/03/08 10:43:04;;;;;;;4.35;3.20;;;5.00;99.90;;;;;;6131035;23;20014;-75
2023/03/08 10:45:31;;;;;;;5.45;3.38;;;5.20;99.90;;;;;;6131500;23;20032;-71
2023/03/08 10:48:00;;;;;;;4.25;3.53;;;5.20;99.90;;;;;;6131077;23;20045;-74
2023/03/08 10:50:32;;;;;;;5.72;3.30;;;5.50;99.90;;;;;;6106749;23;20069;-74
2023/03/08 10:53:18;;;;;;;5.32;3.85;;;5.60;99.90;;;;;;6130490;23;20442;-73
2023/03/08 10:55:47;;;;;;;3.03;2.50;;;5.40;99.90;;;;;;6130486;23;20010;-73
2023/03/08 10:58:33;;;;;;;3.90;2.20;;;5.50;99.90;;;;;;6104664;23;20025;-74
2023/03/08 11:01:05;;;;;;;4.20;2.50;;;5.30;99.90;;;;;;6128578;23;20060;-73
2023/03/08 11:03:32;;;;;;;7.90;2.70;;;5.10;99.90;;;;;;6129282;23;20026;-73
2023/03/08 11:05:59;;;;;;;3.30;2.30;;;5.30;99.90;;;;;;6105423;23;20037;-73
2023/03/08 11:08:28;;;;;;;1.75;1.27;;;5.30;99.90;;;;;;6130754;23;20328;-74
2023/03/08 11:11:12;;;;;;;3.72;1.35;;;5.40;99.90;;;;;;6131019;23;20020;-73
2023/03/08 11:13:46;;;;;;;2.63;1.05;;;5.20;99.90;;;;;;6130240;23;20036;-73
2023/03/08 11:16:17;;;;;;;2.67;2.00;;;5.40;99.90;;;;;;6131526;23;20018;-74
2023/03/08 11:18:56;;;;;;;3.00;1.98;;;5.50;99.90;;;;;;6130884;23;20242;-73
2023/03/08 11:21:47;;;;;;;4.00;2.08;;;5.70;99.90;;;;;;6107087;23;20073;-74
2023/03/08 11:24:19;;;;;;;2.55;1.60;;;5.50;99.90;;;;;;6130488;23;20032;-74
2023/03/08 11:27:00;;;;;;;2.65;1.70;;;5.30;99.90;;;;;;6130685;23;20332;-73
2023/03/08 11:29:49;;;;;;;3.65;2.15;;;5.30;99.90;;;;;;6131107;23;20021;-73
2023/03/08 11:32:40;;;;;;;4.13;2.40;;;5.70;99.90;;;;;;6131122;23;20049;-73
2023/03/08 11:35:24;;;;;;;3.42;2.17;;;5.70;99.90;;;;;;6113671;23;20017;-74
2023/03/08 11:38:12;;;;;;;6.43;2.58;;;5.60;99.90;;;;;;6130583;23;20017;-74
2023/03/08 11:40:57;;;;;;;4.65;2.03;;;5.80;99.90;;;;;;6128241;23;20017;-73
2023/03/08 11:43:42;;;;;;;;;;;5.50;99.90;;;;;;6106817;23;20065;-73
2023/03/08 11:46:31;;;;;;;3.47;1.60;;;5.40;99.90;;;;;;6130509;23;19909;-73
2023/03/08 11:49:08;;;;;;;2.65;1.75;;;5.40;99.90;;;;;;6089658;23;20050;-73
2023/03/08 11:51:55;;;;;;;3.70;1.80;;;5.50;99.90;;;;;;6130747;23;20013;-73
2023/03/08 11:54:33;;;;;;;6.18;3.88;;;5.60;99.90;;;;;;6131225;23;20014;-73
2023/03/08 11:57:02;;;;;;;4.97;2.53;;;5.60;99.90;;;;;;6106506;23;20101;-74
2023/03/08 11:59:59;;;;;;;3.80;1.80;;;5.30;99.90;;;;;;6105698;23;20049;-74
2023/03/08 12:02:36;;;;;;;4.35;1.63;;;5.50;99.90;;;;;;6130336;23;20196;-72
2023/03/08 12:05:26;;;;;;;1.83;1.60;;;5.50;99.90;;;;;;6129943;23;20013;-73
2023/03/08 12:08:07;;;;;;;4.00;1.10;;;5.60;99.90;;;;;;6130003;23;20010;-74
2023/03/08 12:10:48;;;;;;;4.07;1.30;;;5.70;99.90;;;;;;6129743;23;20048;-78
2023/03/08 12:13:41;;;;;;;2.83;1.48;;;5.70;99.90;;;;;;6105331;23;20013;-72
2023/03/08 12:16:31;;;;;;;4.70;1.60;;;5.70;99.90;;;;;;6129828;23;20044;-72
2023/03/08 12:19:20;;;;;;;5.03;1.35;;;5.80;99.90;;;;;;6130481;23;20237;-73
2023/03/08 12:21:56;;;;;;;4.53;1.45;;;6.00;99.90;;;;;;6093819;23;20018;-73
2023/03/08 12:25:02;;;;;;;2.28;1.30;;;5.80;99.90;;;;;;6129304;23;20064;-73
2023/03/08 12:27:38;;;;;;;1.88;1.20;;;6.00;99.90;;;;;;6130197;23;20017;-74
2023/03/08 12:30:09;;;;;;;3.40;1.33;;;5.70;99.90;;;;;;6130370;23;20236;-73
2023/03/08 12:32:41;;;;;;;2.35;1.40;;;5.90;99.90;;;;;;6129769;23;20040;-73
2023/03/08 12:35:35;;;;;;;1.85;1.00;;;5.60;99.90;;;;;;6106358;23;20018;-74
2023/03/08 12:38:25;;;;;;;2.70;1.30;;;5.80;99.90;;;;;;6105020;23;20014;-72
2023/03/08 12:40:55;;;;;;;3.83;1.20;;;5.80;99.90;;;;;;6130027;23;20436;-72
2023/03/08 12:43:20;;;;;;;4.47;1.67;;;5.70;99.90;;;;;;6129631;23;20013;-73
2023/03/08 12:46:08;;;;;;;6.65;1.55;;;5.90;99.90;;;;;;6131075;23;20022;-73
2023/03/08 12:48:46;;;;;;;2.90;1.40;;;5.70;99.90;;;;;;6129660;23;20041;-73
2023/03/08 12:51:12;;;;;;;6.60;1.50;;;5.60;99.90;;;;;;6129744;23;20021;-72
2023/03/08 12:53:49;;;;;;;6.10;1.48;;;5.80;99.90;;;;;;6129268;23;20021;-74
2023/03/08 12:56:30;;;;;;;1.88;1.20;;;5.60;99.90;;;;;;6130149;23;20041;-74
2023/03/08 12:59:09;;;;;;;2.95;1.35;;;5.40;99.90;;;;;;6130137;23;20249;-73
2023/03/08 13:01:38;;;;;;;6.93;1.70;;;5.40;99.90;;;;;;6130279;23;20025;-72
2023/03/08 13:04:38;;;;;;;4.25;1.88;;;5.50;99.90;;;;;;6129250;23;20065;-72
2023/03/08 13:07:22;;;;;;;1.98;1.30;;;5.70;99.90;;;;;;6128412;23;20045;-73
2023/03/08 13:10:06;;;;;;;3.97;1.38;;;5.70;99.90;;;;;;6130797;23;20018;-73
2023/03/08 13:12:41;;;;;;;5.22;1.52;;;5.80;99.90;;;;;;6104173;23;20024;-72